createdAt,value
2022-12-16T00:01:38.008Z,87.00
2022-12-16T00:05:44.421Z,58.80
2022-12-16T00:09:47.681Z,48.50
2022-12-16T00:14:27.494Z,64.33
2022-12-16T00:18:30.533Z,47.87
2022-12-16T00:22:33.564Z,52.40
2022-12-16T00:26:36.617Z,76.93
2022-12-16T00:30:41.381Z,61.87
2022-12-16T00:34:44.433Z,44.60
2022-12-16T00:38:47.491Z,76.03
2022-12-16T00:42:50.561Z,67.37
2022-12-16T00:46:56.641Z,57.83
2022-12-16T00:51:33.495Z,67.03
2022-12-16T00:55:36.579Z,87.13
2022-12-16T00:59:39.613Z,75.70
2022-12-16T01:03:44.101Z,60.40
2022-12-16T01:07:53.208Z,69.47
2022-12-16T01:11:56.818Z,70.20
2022-12-16T01:16:01.927Z,59.03
2022-12-16T01:20:07.707Z,57.63
2022-12-16T01:24:41.608Z,50.87
2022-12-16T01:28:44.989Z,82.70
2022-12-16T01:32:48.061Z,87.03
2022-12-16T01:36:52.485Z,70.00
2022-12-16T01:40:55.792Z,76.17
2022-12-16T01:45:19.266Z,81.57
2022-12-16T01:49:27.118Z,61.70
2022-12-16T01:53:32.465Z,66.70
2022-12-16T01:57:41.935Z,67.90
2022-12-16T02:01:45.070Z,66.17
2022-12-16T02:05:49.322Z,57.50
2022-12-16T02:09:54.024Z,62.80
2022-12-16T02:14:23.380Z,74.80
2022-12-16T02:19:04.000Z,82.20
2022-12-16T02:23:26.785Z,68.47
2022-12-16T02:27:58.170Z,74.60
2022-12-16T02:32:09.316Z,68.63
2022-12-16T02:36:20.856Z,73.83
2022-12-16T02:40:28.277Z,70.67
2022-12-16T02:44:42.771Z,68.43
2022-12-16T02:48:47.404Z,84.63
2022-12-16T02:52:51.573Z,70.47
2022-12-16T02:57:08.761Z,69.63
2022-12-16T03:01:10.904Z,66.00
2022-12-16T03:05:21.000Z,69.20
2022-12-16T03:09:29.772Z,90.63
2022-12-16T03:13:36.784Z,81.90
2022-12-16T03:17:40.584Z,62.90
2022-12-16T03:21:50.501Z,84.30
2022-12-16T03:25:57.538Z,56.07
2022-12-16T03:30:06.795Z,82.50
2022-12-16T03:34:17.807Z,53.63
2022-12-16T03:38:23.309Z,51.57
2022-12-16T03:42:27.924Z,44.10
2022-12-16T03:46:31.021Z,47.67
2022-12-16T03:50:35.312Z,60.07
2022-12-16T03:54:39.762Z,70.53
2022-12-16T03:58:43.086Z,52.37
2022-12-16T04:02:46.401Z,88.67
2022-12-16T04:07:10.056Z,63.07
2022-12-16T04:11:31.699Z,89.40
2022-12-16T04:15:58.158Z,38.93
2022-12-16T04:20:18.680Z,55.47
2022-12-16T04:24:29.880Z,73.57
2022-12-16T04:28:34.309Z,61.87
2022-12-16T04:32:51.216Z,50.27
2022-12-16T04:37:11.784Z,61.00
2022-12-16T04:41:32.412Z,41.80
2022-12-16T04:45:54.599Z,52.37
2022-12-16T04:50:14.963Z,73.33
2022-12-16T04:54:35.569Z,61.33
2022-12-16T04:58:56.059Z,40.57
2022-12-16T05:03:18.074Z,63.70
2022-12-16T05:07:38.980Z,48.33
2022-12-16T05:11:59.775Z,66.27
2022-12-16T05:16:20.265Z,29.23
2022-12-16T05:20:42.038Z,54.67
2022-12-16T05:25:02.567Z,67.90
2022-12-16T05:29:22.974Z,19.63
2022-12-16T05:33:43.685Z,19.13
2022-12-16T05:43:21.024Z,40.03
2022-12-16T05:47:53.609Z,24.80
2022-12-16T05:52:31.659Z,46.80
2022-12-16T05:57:04.834Z,56.50
2022-12-16T06:01:42.249Z,56.27
2022-12-16T06:06:18.112Z,57.10
2022-12-16T06:10:53.491Z,45.97
2022-12-16T06:15:29.542Z,43.40
2022-12-16T06:20:05.771Z,46.13
2022-12-16T06:24:26.666Z,32.77
2022-12-16T06:29:08.225Z,39.93
2022-12-16T06:33:28.814Z,40.00
2022-12-16T06:38:07.653Z,50.87
2022-12-16T06:42:27.801Z,43.03
2022-12-16T06:47:03.689Z,32.53
2022-12-16T06:51:39.177Z,41.87
2022-12-16T06:56:16.577Z,31.10
2022-12-16T07:00:48.584Z,47.27
2022-12-16T07:05:46.233Z,48.23
2022-12-16T07:10:40.657Z,35.10
2022-12-16T07:15:18.166Z,48.97
2022-12-16T07:19:50.412Z,45.37
2022-12-16T07:24:26.419Z,44.53
2022-12-16T07:29:02.153Z,49.20
2022-12-16T07:33:23.932Z,37.17
2022-12-16T07:37:44.590Z,39.97
2022-12-16T07:42:19.968Z,56.93
2022-12-16T07:46:55.921Z,32.20
2022-12-16T07:51:32.846Z,38.43
2022-12-16T07:55:52.970Z,43.13
2022-12-16T08:00:14.479Z,47.80
2022-12-16T08:04:50.068Z,28.67
2022-12-16T08:09:12.625Z,35.57
2022-12-16T08:13:33.991Z,40.03
2022-12-16T08:18:10.510Z,33.77
2022-12-16T08:22:51.877Z,34.77
2022-12-16T08:27:14.355Z,39.80
2022-12-16T08:31:49.716Z,34.50
2022-12-16T08:36:26.185Z,33.63
2022-12-16T08:41:02.890Z,34.80
2022-12-16T08:45:39.602Z,32.73
2022-12-16T08:50:14.947Z,32.43
2022-12-16T08:54:50.174Z,44.37
2022-12-16T08:59:26.099Z,38.70
2022-12-16T09:04:02.882Z,45.20
2022-12-16T09:08:35.718Z,36.77
2022-12-16T09:18:27.734Z,42.03
2022-12-16T09:23:19.894Z,37.43
2022-12-16T09:28:17.894Z,26.73
2022-12-16T09:33:12.588Z,36.33
2022-12-16T09:37:48.111Z,36.30
2022-12-16T09:42:40.341Z,34.87
2022-12-16T09:47:11.270Z,29.50
2022-12-16T09:52:05.107Z,37.57
2022-12-16T09:56:46.917Z,29.03
2022-12-16T10:01:18.914Z,22.40
2022-12-16T10:06:02.509Z,27.03
2022-12-16T10:11:02.454Z,35.53
2022-12-16T10:16:00.195Z,20.83
2022-12-16T10:21:00.140Z,29.87
2022-12-16T10:25:27.549Z,38.37
2022-12-16T10:29:58.562Z,28.57
2022-12-16T10:34:35.581Z,32.53
2022-12-16T10:39:32.968Z,29.03
2022-12-16T10:44:12.964Z,36.33
2022-12-16T10:48:53.579Z,40.87
2022-12-16T10:53:21.773Z,37.63
2022-12-16T10:58:18.790Z,35.13
2022-12-16T11:07:58.204Z,33.90
2022-12-16T11:12:42.533Z,28.57
2022-12-16T11:17:34.462Z,27.97
2022-12-16T11:21:56.287Z,29.30
2022-12-16T11:26:25.129Z,27.97
2022-12-16T11:31:00.867Z,30.13
2022-12-16T11:35:23.556Z,28.80
2022-12-16T11:39:49.007Z,27.53
2022-12-16T11:44:20.729Z,28.83
2022-12-16T11:48:54.686Z,22.63
2022-12-16T11:53:51.436Z,22.93
2022-12-16T11:58:22.897Z,38.40
2022-12-16T12:02:50.802Z,25.80
2022-12-16T12:07:48.224Z,23.47
2022-12-16T12:12:13.980Z,24.90
2022-12-16T12:17:11.672Z,25.07
2022-12-16T12:21:42.445Z,24.10
2022-12-16T12:26:10.214Z,18.97
2022-12-16T12:30:33.511Z,19.33
2022-12-16T12:35:03.169Z,17.83
2022-12-16T12:39:38.815Z,19.03
2022-12-16T12:44:42.378Z,16.50
2022-12-16T12:49:17.596Z,14.63
2022-12-16T12:53:46.885Z,13.03
2022-12-16T12:58:18.469Z,23.67
2022-12-16T13:02:43.953Z,15.00
2022-12-16T13:07:05.133Z,9.50
2022-12-16T13:11:41.382Z,18.90
2022-12-16T13:16:03.232Z,17.77
2022-12-16T13:20:45.378Z,15.03
2022-12-16T13:25:08.566Z,17.37
2022-12-16T13:29:43.378Z,15.43
2022-12-16T13:34:19.954Z,23.73
2022-12-16T13:38:41.025Z,20.80
2022-12-16T13:43:20.680Z,15.57
2022-12-16T13:48:05.633Z,14.57
2022-12-16T13:52:36.790Z,23.53
2022-12-16T13:57:02.313Z,18.63
2022-12-16T14:01:28.960Z,17.70
2022-12-16T14:05:54.801Z,16.60
2022-12-16T14:10:41.236Z,17.67
2022-12-16T14:15:07.259Z,18.93
2022-12-16T14:19:38.075Z,17.50
2022-12-16T14:24:09.835Z,22.13
2022-12-16T14:28:42.141Z,16.97
2022-12-16T14:33:02.501Z,18.27
2022-12-16T14:37:57.220Z,15.37
2022-12-16T14:42:18.356Z,15.73
2022-12-16T14:46:47.244Z,19.10
2022-12-16T14:51:07.885Z,17.17
2022-12-16T14:55:33.900Z,24.57
2022-12-16T14:59:55.989Z,11.43
2022-12-16T15:04:19.814Z,26.50
2022-12-16T15:08:49.481Z,21.30
2022-12-16T15:13:09.778Z,18.03
2022-12-16T15:18:08.074Z,24.47
2022-12-16T15:22:35.141Z,21.77
2022-12-16T15:26:55.934Z,27.50
2022-12-16T15:31:24.719Z,23.83
2022-12-16T15:35:50.098Z,25.63
2022-12-16T15:40:40.048Z,17.83
2022-12-16T15:45:07.884Z,15.60
2022-12-16T15:49:40.224Z,20.43
2022-12-16T15:54:01.487Z,21.87
2022-12-16T15:58:45.366Z,21.90
2022-12-16T16:03:08.090Z,18.83
2022-12-16T16:07:33.629Z,19.30
2022-12-16T16:12:31.301Z,17.63
2022-12-16T16:17:34.061Z,18.90
2022-12-16T16:21:54.761Z,26.00
2022-12-16T16:26:15.675Z,20.10
2022-12-16T16:30:51.927Z,26.23
2022-12-16T16:35:29.388Z,25.17
2022-12-16T16:39:50.307Z,31.00
2022-12-16T16:44:27.212Z,30.10
2022-12-16T16:49:12.967Z,25.77
2022-12-16T16:53:49.663Z,27.17
2022-12-16T16:58:29.518Z,36.40
2022-12-16T17:03:02.271Z,26.27
2022-12-16T17:07:37.975Z,38.43
2022-12-16T17:12:15.027Z,48.47
2022-12-16T17:16:35.793Z,53.87
2022-12-16T17:20:56.421Z,45.97
2022-12-16T17:25:33.080Z,43.87
2022-12-16T17:30:10.123Z,45.77
2022-12-16T17:34:45.928Z,41.70
2022-12-16T17:39:34.088Z,48.37
2022-12-16T17:44:07.030Z,51.03
2022-12-16T17:48:46.184Z,67.63
2022-12-16T17:53:06.670Z,47.30
2022-12-16T17:57:41.653Z,41.93
2022-12-16T18:02:17.797Z,46.10
2022-12-16T18:06:54.890Z,52.87
2022-12-16T18:11:32.566Z,53.40
2022-12-16T18:16:33.513Z,51.90
2022-12-16T18:21:28.665Z,48.10
2022-12-16T18:26:15.869Z,45.37
2022-12-16T18:30:39.844Z,50.40
2022-12-16T18:35:26.723Z,57.37
2022-12-16T18:40:23.970Z,51.17
2022-12-16T18:45:19.724Z,48.77
2022-12-16T18:49:54.885Z,58.23
2022-12-16T18:54:52.537Z,59.00
2022-12-16T18:59:46.561Z,52.63
2022-12-16T19:04:24.640Z,54.40
2022-12-16T19:09:00.636Z,62.60
2022-12-16T19:18:38.086Z,48.13
2022-12-16T19:23:36.283Z,48.93
2022-12-16T19:28:32.696Z,54.60
2022-12-16T19:33:08.331Z,56.47
2022-12-16T19:37:44.700Z,60.17
2022-12-16T19:42:20.630Z,56.67
2022-12-16T19:46:57.795Z,53.13
2022-12-16T19:51:30.607Z,53.43
2022-12-16T19:56:12.803Z,54.00
2022-12-16T20:00:41.858Z,58.87
2022-12-16T20:05:18.493Z,56.00
2022-12-16T20:09:54.851Z,73.13
2022-12-16T20:14:29.092Z,62.73
2022-12-16T20:19:05.040Z,53.07
2022-12-16T20:23:42.125Z,56.17
2022-12-16T20:32:57.715Z,64.97
2022-12-16T20:37:33.705Z,60.67
2022-12-16T20:42:10.693Z,51.80
2022-12-16T20:46:46.892Z,59.97
2022-12-16T20:51:27.021Z,58.03
2022-12-16T20:55:59.763Z,60.70
2022-12-16T21:00:19.298Z,54.67
2022-12-16T21:04:42.928Z,55.13
2022-12-16T21:09:15.943Z,57.00
2022-12-16T21:13:50.964Z,49.57
2022-12-16T21:14:42.429Z,59.30
2022-12-16T21:18:17.971Z,53.60
2022-12-16T21:22:48.052Z,55.13
2022-12-16T21:27:24.338Z,53.63
2022-12-16T21:31:44.985Z,56.40
2022-12-16T21:36:11.810Z,53.93
2022-12-16T21:40:41.448Z,55.83
2022-12-16T21:45:17.017Z,56.10
2022-12-16T21:49:37.337Z,54.20
2022-12-16T21:54:14.679Z,58.57
2022-12-16T21:58:51.382Z,53.10
2022-12-16T22:03:27.490Z,61.80
2022-12-16T22:07:48.224Z,59.90
2022-12-16T22:12:25.307Z,60.40
2022-12-16T22:17:25.262Z,54.53
2022-12-16T22:21:47.512Z,62.27
2022-12-16T22:26:23.411Z,60.03
2022-12-16T22:30:45.207Z,54.77
2022-12-16T22:35:20.538Z,61.47
2022-12-16T22:39:44.689Z,56.90
2022-12-16T22:44:05.662Z,54.17
2022-12-16T22:48:29.954Z,61.50
2022-12-16T22:53:02.491Z,60.50
2022-12-16T22:57:23.573Z,63.00
2022-12-16T23:01:58.919Z,63.93
2022-12-16T23:06:22.478Z,59.27
2022-12-16T23:10:42.801Z,58.93
2022-12-16T23:15:03.385Z,63.07
2022-12-16T23:19:24.104Z,58.63
2022-12-16T23:23:46.442Z,43.23
2022-12-16T23:28:06.910Z,59.70
2022-12-16T23:32:27.727Z,53.50
2022-12-16T23:36:48.436Z,55.57
2022-12-16T23:41:29.198Z,63.67
2022-12-16T23:50:34.525Z,58.00
2022-12-16T23:55:10.377Z,55.60
2022-12-16T23:59:48.247Z,64.00
